createdAt,value
2022-11-05T00:02:09.689Z,0.2
2022-11-05T00:07:09.790Z,0.2
2022-11-05T00:12:09.798Z,0.2
2022-11-05T00:17:09.720Z,0.2
2022-11-05T00:22:09.759Z,0.2
2022-11-05T00:27:10.236Z,0.2
2022-11-05T00:32:09.773Z,0.2
2022-11-05T00:37:09.850Z,0.2
2022-11-05T00:42:09.744Z,0.2
2022-11-05T00:47:26.925Z,0.2
2022-11-05T00:52:09.730Z,0.2
2022-11-05T00:57:09.707Z,0.2
2022-11-05T01:02:09.734Z,0.2
2022-11-05T01:07:09.714Z,0.2
2022-11-05T01:12:09.795Z,0.2
2022-11-05T01:23:13.410Z,0.2
2022-11-05T01:28:54.059Z,0.2
2022-11-05T01:32:09.851Z,0.2
2022-11-05T01:37:29.829Z,0.3
2022-11-05T01:42:09.880Z,0.2
2022-11-05T01:47:09.753Z,0.2
2022-11-05T01:52:17.345Z,0.2
2022-11-05T01:57:17.344Z,0.2
2022-11-05T02:02:17.478Z,0.1
2022-11-05T02:07:17.308Z,0.2
2022-11-05T02:12:17.302Z,0.2
2022-11-05T02:17:17.343Z,0.2
2022-11-05T02:22:17.329Z,0.2
2022-11-05T02:27:17.453Z,0.2
2022-11-05T02:32:17.359Z,0.2
2022-11-05T02:37:17.371Z,0.2
2022-11-05T02:42:17.389Z,0.1
2022-11-05T02:47:20.322Z,0.2
2022-11-05T02:52:17.384Z,0.1
2022-11-05T02:57:17.375Z,0.3
2022-11-05T03:02:17.535Z,0.3
2022-11-05T03:07:17.312Z,0.2
2022-11-05T03:12:17.357Z,0.2
2022-11-05T03:17:17.311Z,0.2
2022-11-05T03:22:17.347Z,0.2
2022-11-05T03:27:17.399Z,0.2
2022-11-05T03:32:17.421Z,0.2
2022-11-05T03:37:17.401Z,0.3
2022-11-05T03:42:17.463Z,0.3
2022-11-05T03:47:17.329Z,0.2
2022-11-05T03:52:17.358Z,0.3
2022-11-05T03:57:17.365Z,0.2
2022-11-05T04:02:17.472Z,0.2
2022-11-05T04:07:17.371Z,0.2
2022-11-05T04:12:17.352Z,0.2
2022-11-05T04:17:17.354Z,0.3
2022-11-05T04:22:17.341Z,0.2
2022-11-05T04:27:29.569Z,0.2
2022-11-05T04:33:13.690Z,0.2
2022-11-05T04:37:25.789Z,0.2
2022-11-05T04:42:17.348Z,0.2
2022-11-05T04:47:17.411Z,0.3
2022-11-05T04:52:17.359Z,0.2
2022-11-05T04:57:17.362Z,0.2
2022-11-05T05:02:17.428Z,0.2
2022-11-05T05:07:17.397Z,0.2
2022-11-05T05:12:17.423Z,0.1
2022-11-05T05:17:17.417Z,0.1
2022-11-05T05:22:17.393Z,0.2
2022-11-05T05:27:17.399Z,0.1
2022-11-05T05:32:17.508Z,0.2
2022-11-05T05:37:17.374Z,0.2
2022-11-05T05:42:17.394Z,0.2
2022-11-05T05:47:17.395Z,0.2
2022-11-05T05:52:17.394Z,0.2
2022-11-05T05:57:17.344Z,0.2
2022-11-05T06:02:17.529Z,0.2
2022-11-05T06:07:17.387Z,0.2
2022-11-05T06:12:17.397Z,0.2
2022-11-05T06:17:17.410Z,0.2
2022-11-05T06:22:17.347Z,0.2
2022-11-05T06:27:24.631Z,0.3
2022-11-05T06:32:17.343Z,0.2
2022-11-05T06:37:17.381Z,0.3
2022-11-05T06:42:20.344Z,0.3
2022-11-05T06:47:52.875Z,0.3
2022-11-05T06:52:17.459Z,0.4
2022-11-05T06:57:17.369Z,0.5
2022-11-05T07:02:17.444Z,0.5
2022-11-05T07:07:17.340Z,0.8
2022-11-05T07:12:17.451Z,0.1
2022-11-05T07:17:17.345Z,0.11
2022-11-05T07:22:17.367Z,0.1
2022-11-05T07:27:17.341Z,0.1
2022-11-05T07:32:49.921Z,0.11
2022-11-05T07:37:17.368Z,0.14
2022-11-05T07:42:17.395Z,0.17
2022-11-05T07:47:17.385Z,0.15
2022-11-05T07:52:17.461Z,0.15
2022-11-05T07:57:17.384Z,0.14
2022-11-05T08:02:17.484Z,0.15
2022-11-05T08:07:17.385Z,0.17
2022-11-05T08:12:17.357Z,0.24
2022-11-05T08:17:20.368Z,0.47
2022-11-05T08:22:17.426Z,0.4
2022-11-05T08:27:17.584Z,0.28
2022-11-05T08:32:17.440Z,0.21
2022-11-05T08:37:17.445Z,0.28
2022-11-05T08:42:17.416Z,0.22
2022-11-05T08:47:17.395Z,0.18
2022-11-05T08:52:17.418Z,0.16
2022-11-05T08:57:17.584Z,0.27
2022-11-05T09:02:17.524Z,0.21
2022-11-05T09:07:17.408Z,0.16
2022-11-05T09:12:17.457Z,0.2
2022-11-05T09:17:17.572Z,0.24
2022-11-05T09:22:17.475Z,0.23
2022-11-05T09:27:18.676Z,0.33
2022-11-05T09:32:17.690Z,0.27
2022-11-05T09:37:17.809Z,0.23
2022-11-05T09:42:17.547Z,0.19
2022-11-05T09:47:17.745Z,0.13
2022-11-05T09:52:17.526Z,0.11
2022-11-05T09:57:17.440Z,0.12
2022-11-05T10:02:17.532Z,0.17
2022-11-05T10:07:17.543Z,0.15
2022-11-05T10:12:17.496Z,0.18
2022-11-05T10:17:17.728Z,0.23
2022-11-05T10:22:17.486Z,0.25
2022-11-05T10:27:17.647Z,0.35
2022-11-05T10:32:17.366Z,0.5
2022-11-05T10:37:17.497Z,0.64
2022-11-05T10:42:17.380Z,0.61
2022-11-05T10:47:17.389Z,0.59
2022-11-05T10:52:17.367Z,0.42
2022-11-05T10:57:17.415Z,0.3
2022-11-05T11:02:17.523Z,0.23
2022-11-05T11:07:17.407Z,0.27
2022-11-05T11:12:17.471Z,0.31
2022-11-05T11:17:17.546Z,0.27
2022-11-05T11:22:17.472Z,0.39
2022-11-05T11:27:17.607Z,0.45
2022-11-05T11:32:17.458Z,0.55
2022-11-05T11:37:20.413Z,0.64
2022-11-05T11:42:17.422Z,0.45
2022-11-05T11:47:47.743Z,0.33
2022-11-05T11:52:17.509Z,0.21
2022-11-05T11:57:17.500Z,0.23
2022-11-05T12:02:17.593Z,0.24
2022-11-05T12:07:17.416Z,0.27
2022-11-05T12:12:17.426Z,0.22
2022-11-05T12:17:17.503Z,0.12
2022-11-05T12:22:17.423Z,0.17
2022-11-05T12:27:17.670Z,0.2
2022-11-05T12:32:17.500Z,0.3
2022-11-05T12:37:17.407Z,0.32
2022-11-05T12:42:17.616Z,0.3
2022-11-05T12:47:17.451Z,0.22
2022-11-05T12:52:17.441Z,0.26
2022-11-05T12:57:17.412Z,0.17
2022-11-05T13:02:17.502Z,0.1
2022-11-05T13:07:17.542Z,0.19
2022-11-05T13:12:17.401Z,0.37
2022-11-05T13:17:17.448Z,0.41
2022-11-05T13:22:17.514Z,0.28
2022-11-05T13:27:17.648Z,0.18
2022-11-05T13:32:30.234Z,0.17
2022-11-05T13:37:18.759Z,0.24
2022-11-05T13:48:44.335Z,0.18
2022-11-05T13:53:22.405Z,0.13
2022-11-05T13:57:17.474Z,0.16
2022-11-05T14:02:17.570Z,0.12
2022-11-05T14:07:17.410Z,0.13
2022-11-05T14:12:17.409Z,0.12
2022-11-05T14:17:17.388Z,0.13
2022-11-05T14:22:17.486Z,0.13
2022-11-05T14:27:17.438Z,0.13
2022-11-05T14:32:17.417Z,0.9
2022-11-05T14:37:17.425Z,0.8
2022-11-05T14:42:17.417Z,0.9
2022-11-05T15:27:28.094Z,0.4
2022-11-05T15:32:24.515Z,0.4
2022-11-05T15:37:30.502Z,0.3
2022-11-05T15:42:28.631Z,0.2
2022-11-05T15:47:28.589Z,0.3
2022-11-05T15:53:14.506Z,0.3
2022-11-05T15:57:28.509Z,0.2
2022-11-05T16:02:29.198Z,0.2
2022-11-05T16:07:28.590Z,0.2
2022-11-05T16:12:28.668Z,0.2
2022-11-05T16:17:28.590Z,0.2
2022-11-05T16:22:28.632Z,0.2
2022-11-05T16:27:28.575Z,0.2
2022-11-05T16:32:43.213Z,0.2
2022-11-05T16:37:28.493Z,0.2
2022-11-05T16:42:28.582Z,0.2
2022-11-05T16:47:28.513Z,0.2
2022-11-05T16:52:28.512Z,0.2
2022-11-05T16:57:28.521Z,0.2
2022-11-05T17:02:28.592Z,0.2
2022-11-05T17:07:28.535Z,0.2
2022-11-05T17:12:28.540Z,0.1
2022-11-05T17:17:28.515Z,0.2
2022-11-05T17:22:28.554Z,0.2
2022-11-05T17:27:28.628Z,0.1
2022-11-05T17:32:28.550Z,0.2
2022-11-05T17:37:28.572Z,0.2
2022-11-05T17:42:28.556Z,0.2
2022-11-05T17:47:28.573Z,0.1
2022-11-05T17:52:28.570Z,0.3
2022-11-05T17:57:28.529Z,0.2
2022-11-05T18:02:28.679Z,0.1
2022-11-05T18:07:28.534Z,0.2
2022-11-05T18:12:28.512Z,0.2
2022-11-05T18:17:28.553Z,0.2
2022-11-05T18:22:28.533Z,0.3
2022-11-05T18:27:28.566Z,0.2
2022-11-05T18:32:28.513Z,0.2
2022-11-05T18:37:28.538Z,0.2
2022-11-05T18:42:28.610Z,0.2
2022-11-05T18:47:28.524Z,0.2
2022-11-05T18:52:28.549Z,0.2
2022-11-05T18:57:28.660Z,0.1
2022-11-05T19:02:28.639Z,0.1
2022-11-05T19:07:28.563Z,0.2
2022-11-05T19:12:30.470Z,0.2
2022-11-05T19:17:28.559Z,0.2
2022-11-05T19:22:28.559Z,0.2
2022-11-05T19:48:30.933Z,0.1
2022-11-05T19:52:28.785Z,0.2
2022-11-05T19:57:36.078Z,0.3
2022-11-05T20:02:28.819Z,0.2
2022-11-05T20:12:28.725Z,0.2
2022-11-05T20:17:44.741Z,0.2
2022-11-05T20:22:28.577Z,0.2
2022-11-05T20:27:28.581Z,0.2
2022-11-05T20:32:28.587Z,0.1
2022-11-05T20:37:28.531Z,0.2
2022-11-05T20:42:28.625Z,0.2
2022-11-05T20:47:28.543Z,0.2
2022-11-05T20:52:28.557Z,0.2
2022-11-05T20:57:28.549Z,0.1
2022-11-05T21:02:28.770Z,0.2
2022-11-05T21:07:35.709Z,0.2
2022-11-05T21:12:28.555Z,0.2
2022-11-05T21:17:38.477Z,0.2
2022-11-05T21:22:28.853Z,0.2
2022-11-05T21:27:28.811Z,0.2
2022-11-05T21:32:37.387Z,0.2
2022-11-05T21:37:28.733Z,0.2
2022-11-05T21:42:28.656Z,0.2
2022-11-05T21:47:28.557Z,0.2
2022-11-05T21:52:28.739Z,0.2
2022-11-05T21:57:28.843Z,0.2
2022-11-05T22:02:28.772Z,0.2
2022-11-05T22:12:28.595Z,0.1
2022-11-05T22:17:28.546Z,0.2
2022-11-05T22:22:28.586Z,0.2
2022-11-05T22:27:28.550Z,0.2
2022-11-05T22:32:28.575Z,0.2
2022-11-05T22:37:28.690Z,0.1
2022-11-05T22:42:28.692Z,0.2
2022-11-05T22:53:45.300Z,0.2
2022-11-05T22:57:32.540Z,0.2
2022-11-05T23:02:32.539Z,0.2
2022-11-05T23:07:32.522Z,0.3
2022-11-05T23:12:32.545Z,0.2
2022-11-05T23:17:32.500Z,0.2
2022-11-05T23:22:32.540Z,0.2
2022-11-05T23:27:32.440Z,0.2
2022-11-05T23:32:32.462Z,0.1
2022-11-05T23:37:32.518Z,0.3
2022-11-05T23:42:32.462Z,0.2
2022-11-05T23:47:32.443Z,0.2
2022-11-05T23:52:32.500Z,0.2
2022-11-05T23:57:32.441Z,0.1
